Time;durP1;ratioP1;P1;durP2;ratioP2;P2;SDS_P1;SDS_P2;PMS_P1;PMS_P2;Temp;Humidity;BMP_temperature;BMP_pressure;BME280_temperature;BME280_humidity;BME280_pressure;Samples;Min_cycle;Max_cycle;Signal;HPM_P1;HPM_P2
2023/07/04 00:00:27;;;;;;;10.48;2.33;;;12.90;99.90;;;;;;5004580;28;20160;-75
2023/07/04 00:02:52;;;;;;;11.38;2.65;;;12.90;99.90;;;;;;5020584;28;20029;-75
2023/07/04 00:05:18;;;;;;;11.82;2.38;;;12.90;99.90;;;;;;5004471;28;20099;-75
2023/07/04 00:07:44;;;;;;;9.95;2.45;;;12.90;99.90;;;;;;5004045;28;20236;-75
2023/07/04 00:10:10;;;;;;;9.38;2.22;;;12.90;99.90;;;;;;4993619;28;20093;-75
2023/07/04 00:12:35;;;;;;;11.60;2.38;;;12.90;99.90;;;;;;5019212;28;20171;-75
2023/07/04 00:15:02;;;;;;;10.80;2.10;;;12.90;99.90;;;;;;5020503;28;20227;-76
2023/07/04 00:17:28;;;;;;;13.98;3.03;;;12.90;99.90;;;;;;5019332;28;20030;-75
2023/07/04 00:19:54;;;;;;;13.15;2.50;;;12.90;99.90;;;;;;5011945;28;20026;-75
2023/07/04 00:22:20;;;;;;;11.40;2.72;;;12.90;99.90;;;;;;5020122;28;20270;-75
2023/07/04 00:24:46;;;;;;;13.65;2.60;;;12.90;99.90;;;;;;5004121;28;20037;-76
2023/07/04 00:27:12;;;;;;;9.25;2.58;;;12.90;99.90;;;;;;5019900;28;20026;-76
2023/07/04 00:29:38;;;;;;;11.50;2.33;;;12.80;99.90;;;;;;4984051;28;20022;-76
2023/07/04 00:32:07;;;;;;;10.38;2.47;;;12.80;99.90;;;;;;5019707;28;20042;-75
2023/07/04 00:34:34;;;;;;;10.50;2.35;;;12.80;99.90;;;;;;5020333;28;20026;-76
2023/07/04 00:37:01;;;;;;;12.07;2.85;;;12.80;99.90;;;;;;4985624;28;20097;-75
2023/07/04 00:39:28;;;;;;;14.73;2.35;;;12.80;99.90;;;;;;5020246;28;20026;-75
2023/07/04 00:41:54;;;;;;;12.38;2.33;;;12.80;99.90;;;;;;5020133;28;20104;-75
2023/07/04 00:44:30;;;;;;;11.82;2.83;;;12.70;99.90;;;;;;5020248;28;20260;-75
2023/07/04 00:47:10;;;;;;;11.70;2.33;;;12.80;99.90;;;;;;5019972;28;20030;-76
2023/07/04 00:49:49;;;;;;;12.32;2.53;;;12.70;99.90;;;;;;5003691;28;20090;-75
2023/07/04 00:52:14;;;;;;;11.70;2.45;;;12.70;99.90;;;;;;5019613;28;20106;-76
2023/07/04 00:54:52;;;;;;;12.93;2.75;;;12.70;99.90;;;;;;5003944;28;20182;-76
2023/07/04 00:57:20;;;;;;;7.60;1.95;;;12.70;99.90;;;;;;5019506;28;20068;-76
2023/07/04 00:59:51;;;;;;;10.13;2.33;;;12.70;99.90;;;;;;5019695;28;20057;-76
2023/07/04 01:02:21;;;;;;;10.30;2.75;;;12.60;99.90;;;;;;5019423;28;20033;-76
2023/07/04 01:04:52;;;;;;;7.25;2.10;;;12.60;99.90;;;;;;5019783;28;20052;-75
2023/07/04 01:07:47;;;;;;;11.73;2.30;;;12.60;99.90;;;;;;5003085;28;20093;-76
2023/07/04 01:10:27;;;;;;;11.38;2.10;;;12.60;99.90;;;;;;5003315;28;20058;-76
2023/07/04 01:12:53;;;;;;;8.23;2.00;;;12.60;99.90;;;;;;5003197;28;20353;-76
2023/07/04 01:15:19;;;;;;;11.77;2.38;;;12.50;99.90;;;;;;5019504;28;20285;-76
2023/07/04 01:17:45;;;;;;;13.98;2.60;;;12.50;99.90;;;;;;5001494;28;20163;-76
2023/07/04 01:20:15;;;;;;;15.38;2.58;;;12.60;99.90;;;;;;4998479;28;20041;-76
2023/07/04 01:23:08;;;;;;;12.52;2.63;;;12.60;99.90;;;;;;5019295;28;20030;-76
2023/07/04 01:25:52;;;;;;;8.88;2.13;;;12.50;99.90;;;;;;5003296;28;20030;-76
2023/07/04 01:28:20;;;;;;;11.57;2.30;;;12.50;99.90;;;;;;5018781;28;20160;-76
2023/07/04 01:30:46;;;;;;;9.35;2.17;;;12.50;99.90;;;;;;5019544;28;20037;-76
2023/07/04 01:33:13;;;;;;;12.55;2.20;;;12.50;99.90;;;;;;5002751;28;20042;-76
2023/07/04 01:35:39;;;;;;;10.75;2.22;;;12.50;99.90;;;;;;5019250;28;20029;-75
2023/07/04 01:38:06;;;;;;;9.30;2.03;;;12.50;99.90;;;;;;4983340;28;20157;-76
2023/07/04 01:40:34;;;;;;;13.18;2.63;;;12.50;99.90;;;;;;5002281;28;20026;-76
2023/07/04 01:43:01;;;;;;;10.15;2.20;;;12.50;99.90;;;;;;5002674;28;20077;-76
2023/07/04 01:45:26;;;;;;;10.05;2.33;;;12.50;99.90;;;;;;5002825;28;20034;-76
2023/07/04 01:47:53;;;;;;;9.05;2.00;;;12.50;99.90;;;;;;5002544;28;20077;-75
2023/07/04 01:50:20;;;;;;;8.43;2.17;;;12.50;99.90;;;;;;5019156;28;20108;-76
2023/07/04 01:52:46;;;;;;;8.30;2.13;;;12.50;99.90;;;;;;4983171;28;20023;-76
2023/07/04 01:55:13;;;;;;;11.95;2.75;;;12.50;99.90;;;;;;5016159;28;20143;-76
2023/07/04 01:57:39;;;;;;;11.77;2.30;;;12.50;99.90;;;;;;5002581;28;20243;-76
2023/07/04 02:00:09;;;;;;;10.52;2.30;;;12.50;99.90;;;;;;5018921;28;20322;-76
2023/07/04 02:02:36;;;;;;;10.40;2.47;;;12.50;99.90;;;;;;5002606;28;20105;-76
2023/07/04 02:05:02;;;;;;;10.20;2.30;;;12.50;99.90;;;;;;5002849;28;20056;-76
2023/07/04 02:07:28;;;;;;;12.15;2.30;;;12.40;99.90;;;;;;5018899;28;20260;-76
2023/07/04 02:09:54;;;;;;;7.50;2.20;;;12.50;99.90;;;;;;5018832;28;20061;-76
2023/07/04 02:12:19;;;;;;;10.23;2.40;;;12.50;99.90;;;;;;5018663;28;20029;-76
2023/07/04 02:14:45;;;;;;;6.13;2.10;;;12.50;99.90;;;;;;5002720;28;20081;-76
2023/07/04 02:17:11;;;;;;;7.72;2.10;;;12.50;99.90;;;;;;5018555;28;20252;-76
2023/07/04 02:19:36;;;;;;;9.23;2.30;;;12.50;99.90;;;;;;5002435;28;20026;-76
2023/07/04 02:22:02;;;;;;;8.82;2.30;;;12.50;99.90;;;;;;5002059;28;20183;-76
2023/07/04 02:24:28;;;;;;;10.13;2.53;;;12.50;99.90;;;;;;5018657;28;20030;-76
2023/07/04 02:26:54;;;;;;;9.27;2.13;;;12.50;99.90;;;;;;5018373;28;20026;-76
2023/07/04 02:29:19;;;;;;;9.30;2.28;;;12.50;99.90;;;;;;5018621;28;20058;-76
2023/07/04 02:31:45;;;;;;;11.55;2.50;;;12.60;99.90;;;;;;5018309;28;20050;-76
2023/07/04 02:34:11;;;;;;;8.13;2.05;;;12.60;99.90;;;;;;5002334;28;20033;-76
2023/07/04 02:36:37;;;;;;;7.30;2.28;;;12.60;99.90;;;;;;5001857;28;20064;-76
2023/07/04 02:39:02;;;;;;;7.47;2.30;;;12.60;99.90;;;;;;5002556;28;20085;-76
2023/07/04 02:41:29;;;;;;;12.15;2.72;;;12.60;99.90;;;;;;5005248;28;20272;-76
2023/07/04 02:43:56;;;;;;;8.73;2.63;;;12.60;99.90;;;;;;5005800;28;20168;-76
2023/07/04 02:46:22;;;;;;;10.57;2.58;;;12.60;99.90;;;;;;5021762;28;20109;-76
2023/07/04 02:48:48;;;;;;;9.38;2.20;;;12.60;99.90;;;;;;5021547;28;20130;-76
2023/07/04 02:51:13;;;;;;;9.77;2.38;;;12.60;99.90;;;;;;5021756;28;20289;-76
2023/07/04 02:53:39;;;;;;;8.80;2.63;;;12.60;99.90;;;;;;5005152;28;20037;-76
2023/07/04 02:56:05;;;;;;;7.03;2.13;;;12.60;99.90;;;;;;5005349;28;20041;-76
2023/07/04 02:58:30;;;;;;;8.95;2.38;;;12.70;99.90;;;;;;5004958;28;20074;-76
2023/07/04 03:00:57;;;;;;;9.13;2.40;;;12.70;99.90;;;;;;5005347;28;20053;-76
2023/07/04 03:03:23;;;;;;;8.77;2.40;;;12.70;99.90;;;;;;5021343;28;20030;-76
2023/07/04 03:05:49;;;;;;;7.28;2.10;;;12.70;99.90;;;;;;4985827;28;20029;-76
2023/07/04 03:08:15;;;;;;;9.15;2.45;;;12.80;99.90;;;;;;5002139;28;20038;-76
2023/07/04 03:10:43;;;;;;;9.35;2.40;;;12.80;99.90;;;;;;5021571;28;20050;-76
2023/07/04 03:13:09;;;;;;;7.68;2.35;;;12.80;99.90;;;;;;5021182;28;20037;-76
2023/07/04 03:15:35;;;;;;;11.73;2.70;;;12.90;99.90;;;;;;5005142;28;20286;-77
2023/07/04 03:18:01;;;;;;;9.75;2.50;;;12.90;99.90;;;;;;5000038;28;20139;-77
2023/07/04 03:20:27;;;;;;;7.20;2.00;;;12.90;99.90;;;;;;5005054;28;20044;-76
2023/07/04 03:22:53;;;;;;;7.90;2.40;;;12.90;99.90;;;;;;5021048;28;20033;-76
2023/07/04 03:25:19;;;;;;;7.78;2.28;;;12.90;99.90;;;;;;5021586;28;20026;-76
2023/07/04 03:27:45;;;;;;;9.60;2.33;;;12.90;99.90;;;;;;5004662;28;20034;-77
2023/07/04 03:30:11;;;;;;;9.13;2.30;;;12.90;99.90;;;;;;5004691;28;20203;-77
2023/07/04 03:32:37;;;;;;;7.57;2.10;;;12.90;99.90;;;;;;5020706;28;20080;-77
2023/07/04 03:35:03;;;;;;;8.15;2.00;;;12.80;99.90;;;;;;5004858;28;20038;-77
2023/07/04 03:37:31;;;;;;;5.78;1.80;;;12.80;99.90;;;;;;5090210;28;20180;-76
2023/07/04 03:39:57;;;;;;;8.40;2.00;;;12.80;99.90;;;;;;5021021;28;20087;-76
2023/07/04 03:42:24;;;;;;;8.52;2.00;;;12.80;99.90;;;;;;5004667;28;20018;-77
2023/07/04 03:44:50;;;;;;;6.72;2.10;;;12.80;99.90;;;;;;5020959;28;20050;-76
2023/07/04 03:47:15;;;;;;;8.18;1.92;;;12.80;99.90;;;;;;4984775;28;20038;-76
2023/07/04 03:49:41;;;;;;;6.57;1.95;;;12.80;99.90;;;;;;5002190;28;20037;-76
2023/07/04 03:52:07;;;;;;;8.68;1.95;;;13.60;99.90;;;;;;5020324;28;20072;-76
2023/07/04 03:54:33;;;;;;;7.07;1.85;;;12.80;99.90;;;;;;5020710;28;20022;-76
2023/07/04 03:56:59;;;;;;;7.82;2.08;;;12.80;99.90;;;;;;5020515;28;20026;-76
2023/07/04 03:59:25;;;;;;;7.68;2.10;;;12.90;99.90;;;;;;5004348;28;20063;-76
2023/07/04 04:01:51;;;;;;;9.32;2.13;;;12.80;99.90;;;;;;5004103;28;20265;-76
2023/07/04 04:04:16;;;;;;;8.65;1.95;;;12.80;99.90;;;;;;5004256;28;20196;-76
2023/07/04 04:06:42;;;;;;;6.65;1.65;;;12.80;99.90;;;;;;5004085;28;20089;-76
2023/07/04 04:09:08;;;;;;;8.25;1.77;;;12.70;99.90;;;;;;5020572;28;20021;-76
2023/07/04 04:11:33;;;;;;;8.95;2.13;;;12.80;99.90;;;;;;5020232;28;20144;-76
2023/07/04 04:13:59;;;;;;;8.95;2.10;;;12.80;99.90;;;;;;5004253;28;20206;-76
2023/07/04 04:16:25;;;;;;;9.68;2.13;;;12.80;99.90;;;;;;5003829;28;20037;-76
2023/07/04 04:18:51;;;;;;;7.57;2.03;;;12.80;99.90;;;;;;5009876;28;20091;-76
2023/07/04 04:21:18;;;;;;;12.75;2.50;;;12.80;99.90;;;;;;5002176;28;20167;-76
2023/07/04 04:23:44;;;;;;;8.60;2.38;;;12.80;99.90;;;;;;5020483;28;20028;-76
2023/07/04 04:26:12;;;;;;;5.95;1.90;;;12.90;99.90;;;;;;5020253;28;20033;-76
2023/07/04 04:28:38;;;;;;;8.98;2.30;;;12.90;99.90;;;;;;5003689;28;20079;-76
2023/07/04 04:31:04;;;;;;;7.40;2.30;;;13.00;99.90;;;;;;5020434;28;20093;-76
2023/07/04 04:33:29;;;;;;;7.70;2.40;;;13.10;99.90;;;;;;5003549;28;20171;-76
2023/07/04 04:35:55;;;;;;;9.82;2.45;;;13.10;99.90;;;;;;5003767;28;20021;-76
2023/07/04 04:38:21;;;;;;;9.63;2.45;;;13.20;99.90;;;;;;5019792;28;20264;-76
2023/07/04 04:40:46;;;;;;;10.30;2.40;;;13.20;99.90;;;;;;5003685;28;20069;-76
2023/07/04 04:43:12;;;;;;;9.02;2.60;;;13.30;99.90;;;;;;4987119;28;20268;-76
2023/07/04 04:45:38;;;;;;;12.65;2.70;;;13.40;99.90;;;;;;5003676;28;20026;-76
2023/07/04 04:48:06;;;;;;;12.48;2.60;;;13.40;99.90;;;;;;5003638;28;20089;-76
2023/07/04 04:50:31;;;;;;;10.30;2.97;;;13.40;99.90;;;;;;5003979;28;20259;-76
2023/07/04 04:52:59;;;;;;;11.65;2.95;;;13.40;99.90;;;;;;5019559;28;20014;-76
2023/07/04 04:55:24;;;;;;;10.25;3.03;;;13.50;99.90;;;;;;5019849;28;20026;-76
2023/07/04 04:57:51;;;;;;;10.73;2.65;;;13.20;99.90;;;;;;5003312;28;20025;-76
2023/07/04 05:00:17;;;;;;;11.05;3.13;;;13.50;99.90;;;;;;5003529;28;20085;-76
2023/07/04 05:02:44;;;;;;;11.20;3.17;;;13.50;99.90;;;;;;5087994;28;20233;-76
2023/07/04 05:05:11;;;;;;;9.45;2.90;;;13.50;99.90;;;;;;5003468;28;20228;-76
2023/07/04 05:07:37;;;;;;;9.82;2.70;;;13.60;99.90;;;;;;5003104;28;20030;-76
2023/07/04 05:10:05;;;;;;;12.32;3.90;;;13.60;99.90;;;;;;4990426;28;20022;-76
2023/07/04 05:12:31;;;;;;;8.15;2.42;;;13.70;99.90;;;;;;4999912;28;20033;-76
2023/07/04 05:14:57;;;;;;;11.30;3.08;;;13.70;99.90;;;;;;5019623;28;20022;-76
2023/07/04 05:17:23;;;;;;;10.60;2.88;;;13.70;99.90;;;;;;5002929;28;20220;-76
2023/07/04 05:19:50;;;;;;;11.98;3.00;;;13.80;99.90;;;;;;5009320;28;20041;-76
2023/07/04 05:22:17;;;;;;;11.13;3.30;;;13.80;99.90;;;;;;5019314;28;20089;-76
2023/07/04 05:24:43;;;;;;;8.82;2.90;;;13.80;99.90;;;;;;5019478;28;20026;-76
2023/07/04 05:27:08;;;;;;;12.82;3.03;;;13.90;99.90;;;;;;5019045;28;20087;-76
2023/07/04 05:29:34;;;;;;;10.38;3.13;;;13.90;99.90;;;;;;5019440;28;20029;-76
2023/07/04 05:32:00;;;;;;;9.95;3.80;;;14.00;99.90;;;;;;5018902;28;20042;-76
2023/07/04 05:34:26;;;;;;;12.68;3.38;;;14.00;99.90;;;;;;5003112;28;20319;-76
2023/07/04 05:36:52;;;;;;;12.15;4.00;;;14.00;99.90;;;;;;4983364;28;20305;-76
2023/07/04 05:39:17;;;;;;;8.93;3.08;;;14.00;99.90;;;;;;5002060;28;20057;-76
2023/07/04 05:41:43;;;;;;;11.07;3.40;;;14.00;99.90;;;;;;5018873;28;20026;-76
2023/07/04 05:44:10;;;;;;;11.75;3.30;;;14.10;99.90;;;;;;5003137;28;20025;-76
2023/07/04 05:46:36;;;;;;;13.60;3.20;;;14.20;99.90;;;;;;5002618;28;20020;-76
2023/07/04 05:49:03;;;;;;;10.77;3.22;;;14.20;99.90;;;;;;4983479;28;20167;-76
2023/07/04 05:51:29;;;;;;;11.23;3.35;;;14.30;99.90;;;;;;4993026;28;20026;-76
2023/07/04 05:53:54;;;;;;;10.75;3.38;;;14.40;99.90;;;;;;5019046;28;20026;-76
2023/07/04 05:56:25;;;;;;;12.00;3.10;;;14.40;99.90;;;;;;5002728;28;20102;-76
2023/07/04 05:58:53;;;;;;;10.60;3.05;;;14.50;99.90;;;;;;5002615;28;20022;-76
2023/07/04 06:01:40;;;;;;;11.73;2.80;;;14.50;99.90;;;;;;5018854;28;20037;-76
2023/07/04 06:04:07;;;;;;;8.30;2.22;;;14.50;99.90;;;;;;5018868;28;20307;-76
2023/07/04 06:06:36;;;;;;;11.60;3.10;;;14.50;99.90;;;;;;5002484;28;20032;-76
2023/07/04 06:09:05;;;;;;;11.90;2.53;;;14.50;99.90;;;;;;5018780;28;20025;-76
2023/07/04 06:11:33;;;;;;;9.50;2.15;;;14.60;99.90;;;;;;5018686;28;20018;-76
2023/07/04 06:14:01;;;;;;;9.90;2.53;;;14.70;99.90;;;;;;5019170;28;20018;-76
2023/07/04 06:16:27;;;;;;;11.82;2.35;;;14.80;99.90;;;;;;5022413;28;20044;-76
2023/07/04 06:18:53;;;;;;;10.18;2.50;;;14.90;99.90;;;;;;5014720;28;20247;-76
2023/07/04 06:21:20;;;;;;;11.10;2.42;;;14.90;99.90;;;;;;5006313;28;20037;-76
2023/07/04 06:23:46;;;;;;;9.10;2.50;;;15.00;99.90;;;;;;5022236;28;20030;-80
2023/07/04 06:26:13;;;;;;;9.40;2.20;;;15.10;99.90;;;;;;5022318;28;20089;-77
2023/07/04 06:28:40;;;;;;;9.80;2.58;;;15.10;99.90;;;;;;5021867;28;20034;-77
2023/07/04 06:31:11;;;;;;;7.82;2.00;;;15.20;99.90;;;;;;5022156;28;20033;-77
2023/07/04 06:33:37;;;;;;;8.43;2.30;;;15.20;99.90;;;;;;5021806;28;20211;-77
2023/07/04 06:36:07;;;;;;;10.40;2.10;;;15.20;99.90;;;;;;5022428;28;20029;-77
2023/07/04 06:38:32;;;;;;;9.27;2.20;;;15.30;99.90;;;;;;5005412;28;20030;-77
2023/07/04 06:41:01;;;;;;;10.38;2.03;;;15.20;99.90;;;;;;5005666;28;20068;-76
2023/07/04 06:43:28;;;;;;;6.90;2.40;;;15.20;99.90;;;;;;5005317;28;20309;-76
2023/07/04 06:45:55;;;;;;;9.98;2.20;;;15.40;99.90;;;;;;5021894;28;20060;-77
2023/07/04 06:48:22;;;;;;;9.65;2.35;;;15.40;99.90;;;;;;5021490;28;20102;-77
2023/07/04 06:50:58;;;;;;;8.20;1.88;;;15.50;99.90;;;;;;5005393;28;20236;-77
2023/07/04 06:53:25;;;;;;;7.72;2.00;;;15.60;99.90;;;;;;5021915;28;20052;-77
2023/07/04 06:55:51;;;;;;;9.40;2.10;;;15.60;99.90;;;;;;5021818;28;20028;-77
2023/07/04 06:58:17;;;;;;;8.48;1.70;;;15.60;99.90;;;;;;5021826;28;20030;-77
2023/07/04 07:00:42;;;;;;;7.88;1.90;;;15.80;99.90;;;;;;5005278;28;20246;-77
2023/07/04 07:03:08;;;;;;;9.70;2.05;;;15.60;99.90;;;;;;5004937;28;20088;-77
2023/07/04 07:05:41;;;;;;;6.80;1.88;;;15.60;99.90;;;;;;5021736;28;20180;-77
2023/07/04 07:08:07;;;;;;;6.47;1.70;;;15.70;99.90;;;;;;5021256;28;20026;-77
2023/07/04 07:10:36;;;;;;;7.10;1.92;;;15.70;99.90;;;;;;5005232;28;20122;-77
2023/07/04 07:13:03;;;;;;;9.27;2.10;;;15.80;99.90;;;;;;5021314;28;20259;-77
2023/07/04 07:15:29;;;;;;;8.77;1.80;;;16.00;99.90;;;;;;5021442;28;20259;-77
2023/07/04 07:17:55;;;;;;;8.00;1.85;;;16.20;99.90;;;;;;5021026;28;20051;-77
2023/07/04 07:20:21;;;;;;;8.57;2.20;;;16.30;99.90;;;;;;5021209;28;20199;-75
2023/07/04 07:22:46;;;;;;;7.97;1.77;;;16.40;99.90;;;;;;4985217;28;20026;-75
2023/07/04 07:25:12;;;;;;;8.10;1.88;;;16.40;99.90;;;;;;4999848;28;20029;-75
2023/07/04 07:27:38;;;;;;;6.78;1.88;;;16.40;99.90;;;;;;5004807;28;20067;-75
2023/07/04 07:30:04;;;;;;;9.63;1.90;;;16.30;99.90;;;;;;5004882;28;20214;-76
2023/07/04 07:32:30;;;;;;;5.63;1.80;;;16.30;99.90;;;;;;5021040;28;20105;-76
2023/07/04 07:34:56;;;;;;;7.45;1.92;;;16.20;99.90;;;;;;5021234;28;20060;-76
2023/07/04 07:37:23;;;;;;;8.38;1.90;;;16.30;99.90;;;;;;5020885;28;20026;-76
2023/07/04 07:39:50;;;;;;;7.15;2.00;;;16.40;99.90;;;;;;5004781;28;20033;-75
2023/07/04 07:42:16;;;;;;;6.95;1.73;;;16.50;99.90;;;;;;5020615;28;20026;-76
2023/07/04 07:44:42;;;;;;;6.03;1.95;;;16.50;99.90;;;;;;5005189;28;20282;-76
2023/07/04 07:47:10;;;;;;;7.35;1.88;;;16.50;99.90;;;;;;5020703;28;20029;-76
2023/07/04 07:49:36;;;;;;;9.60;1.90;;;16.60;99.90;;;;;;5004430;28;20022;-76
2023/07/04 07:52:03;;;;;;;8.85;2.00;;;16.60;99.90;;;;;;5020713;28;20218;-76
2023/07/04 07:54:28;;;;;;;7.78;1.73;;;16.60;99.90;;;;;;5020754;28;20033;-76
2023/07/04 07:56:54;;;;;;;7.78;1.90;;;16.60;99.90;;;;;;5020590;28;20038;-76
2023/07/04 07:59:21;;;;;;;9.32;1.90;;;16.80;99.90;;;;;;5004375;28;20083;-76
2023/07/04 08:01:47;;;;;;;8.50;1.90;;;16.80;99.90;;;;;;5020565;28;20081;-76
2023/07/04 08:04:13;;;;;;;6.45;1.80;;;16.90;99.90;;;;;;5020824;28;20034;-76
2023/07/04 08:06:42;;;;;;;8.63;1.70;;;17.00;99.90;;;;;;5004170;28;20049;-75
2023/07/04 08:09:10;;;;;;;8.13;2.00;;;17.00;99.90;;;;;;5020540;28;20026;-76
2023/07/04 08:11:37;;;;;;;7.20;1.83;;;17.00;99.90;;;;;;5020453;28;20028;-76
2023/07/04 08:14:03;;;;;;;5.95;2.20;;;17.10;99.90;;;;;;5004411;28;20029;-75
2023/07/04 08:16:31;;;;;;;7.03;1.80;;;17.10;99.90;;;;;;5020518;28;20083;-75
2023/07/04 08:18:59;;;;;;;7.13;1.65;;;17.10;99.90;;;;;;5015280;28;20029;-76
2023/07/04 08:21:27;;;;;;;6.25;1.73;;;17.20;99.90;;;;;;5020413;28;20259;-75
2023/07/04 08:23:54;;;;;;;6.68;1.73;;;17.20;99.90;;;;;;5020483;28;20029;-75
2023/07/04 08:26:22;;;;;;;8.35;1.83;;;17.30;99.90;;;;;;5004265;28;20044;-76
2023/07/04 08:28:48;;;;;;;6.55;2.00;;;17.40;99.90;;;;;;5020251;28;20264;-76
2023/07/04 08:31:18;;;;;;;8.98;1.95;;;17.50;99.90;;;;;;5020158;28;20022;-75
2023/07/04 08:33:45;;;;;;;6.32;1.65;;;17.40;99.90;;;;;;5019851;28;20110;-76
2023/07/04 08:36:11;;;;;;;7.60;1.77;;;17.50;99.90;;;;;;5003672;28;20042;-75
2023/07/04 08:38:37;;;;;;;8.35;1.85;;;17.50;99.90;;;;;;5002951;28;20030;-76
2023/07/04 08:41:10;;;;;;;6.55;1.65;;;17.40;99.90;;;;;;5020139;28;20251;-75
2023/07/04 08:43:49;;;;;;;5.82;1.70;;;17.30;99.90;;;;;;4988498;28;20384;-76
2023/07/04 08:46:19;;;;;;;6.88;1.55;;;17.30;99.90;;;;;;5020020;28;20033;-75
2023/07/04 08:48:46;;;;;;;6.47;1.77;;;17.30;99.90;;;;;;5019812;28;20034;-75
2023/07/04 08:51:29;;;;;;;8.18;1.83;;;17.40;99.90;;;;;;5003627;28;20022;-75
2023/07/04 08:53:59;;;;;;;10.60;2.30;;;17.40;99.90;;;;;;5004038;28;20022;-76
2023/07/04 08:56:34;;;;;;;9.85;2.10;;;17.40;99.90;;;;;;5003699;28;20022;-75
2023/07/04 08:59:19;;;;;;;7.28;1.92;;;17.60;99.90;;;;;;5003468;28;20046;-75
2023/07/04 09:02:28;;;;;;;8.23;1.98;;;17.80;99.90;;;;;;5019372;28;20045;-75
2023/07/04 09:05:21;;;;;;;7.15;1.80;;;18.20;99.90;;;;;;5019812;28;20079;-76
2023/07/04 09:07:59;;;;;;;7.97;2.00;;;18.50;99.90;;;;;;5003049;28;20041;-75
2023/07/04 09:10:33;;;;;;;8.70;2.20;;;18.60;99.90;;;;;;5003309;28;20026;-75
2023/07/04 09:13:02;;;;;;;6.28;1.92;;;18.70;99.90;;;;;;5003132;28;20025;-75
2023/07/04 09:15:36;;;;;;;9.95;2.30;;;18.80;99.90;;;;;;5019859;28;20022;-75
2023/07/04 09:18:21;;;;;;;8.13;1.98;;;18.90;99.90;;;;;;5016232;28;20018;-75
2023/07/04 09:20:58;;;;;;;10.05;2.10;;;18.90;99.90;;;;;;5019646;28;20085;-74
2023/07/04 09:23:24;;;;;;;10.95;2.30;;;19.10;99.90;;;;;;5019342;28;20175;-75
2023/07/04 09:25:56;;;;;;;10.45;2.22;;;19.30;99.90;;;;;;5003216;28;20089;-75
2023/07/04 09:28:22;;;;;;;8.20;2.20;;;19.20;99.90;;;;;;5019080;28;20041;-75
2023/07/04 09:30:48;;;;;;;10.32;2.58;;;19.00;99.90;;;;;;5019392;28;20085;-75
2023/07/04 09:33:14;;;;;;;8.98;1.85;;;19.00;99.90;;;;;;5002703;28;20046;-75
2023/07/04 09:35:42;;;;;;;7.88;2.10;;;18.90;99.90;;;;;;5002923;28;20030;-75
2023/07/04 09:38:08;;;;;;;12.60;2.60;;;18.90;99.90;;;;;;5019085;28;20037;-75
2023/07/04 09:40:50;;;;;;;9.57;2.30;;;19.10;99.90;;;;;;5003154;28;20056;-75
2023/07/04 09:43:31;;;;;;;8.15;2.25;;;19.00;99.90;;;;;;5018855;28;20264;-75
2023/07/04 09:46:19;;;;;;;10.85;2.55;;;18.60;99.90;;;;;;5019434;28;20171;-75
2023/07/04 09:48:45;;;;;;;9.45;2.17;;;18.60;99.90;;;;;;5018710;28;20178;-75
2023/07/04 09:51:30;;;;;;;13.57;3.05;;;18.60;99.90;;;;;;5003139;28;20172;-75
2023/07/04 09:54:11;;;;;;;11.52;2.30;;;18.80;99.90;;;;;;5019228;28;20032;-75
2023/07/04 09:56:37;;;;;;;11.68;2.08;;;19.00;99.90;;;;;;5018913;28;20075;-76
2023/07/04 09:59:18;;;;;;;9.65;2.00;;;19.10;99.90;;;;;;5019125;28;20017;-75
2023/07/04 10:01:47;;;;;;;7.68;2.10;;;19.30;99.90;;;;;;5018887;28;20037;-76
2023/07/04 10:04:22;;;;;;;12.32;2.60;;;19.20;99.90;;;;;;5019169;28;20037;-75
2023/07/04 10:06:50;;;;;;;12.40;2.40;;;19.00;99.90;;;;;;5018761;28;20034;-76
2023/07/04 10:09:20;;;;;;;9.02;2.20;;;18.80;99.90;;;;;;5019100;28;20034;-75
2023/07/04 10:11:48;;;;;;;9.27;2.20;;;18.80;99.90;;;;;;5018745;28;20075;-75
2023/07/04 10:14:15;;;;;;;12.00;2.45;;;18.90;99.90;;;;;;5018936;28;20384;-76
2023/07/04 10:16:51;;;;;;;7.82;2.05;;;18.90;99.90;;;;;;5018677;28;20068;-76
2023/07/04 10:19:20;;;;;;;11.38;2.80;;;19.00;99.90;;;;;;5016985;28;20089;-76
2023/07/04 10:21:53;;;;;;;6.88;1.70;;;18.90;99.90;;;;;;5018630;28;20113;-76
2023/07/04 10:24:23;;;;;;;8.25;1.80;;;18.70;99.90;;;;;;4986348;28;20041;-75
2023/07/04 10:26:57;;;;;;;7.90;1.75;;;18.50;99.90;;;;;;5018478;28;20044;-76
2023/07/04 10:29:43;;;;;;;9.98;2.22;;;18.50;99.90;;;;;;5018756;28;20049;-76
2023/07/04 10:32:13;;;;;;;10.50;2.10;;;18.70;99.90;;;;;;5018433;28;20061;-75
2023/07/04 10:34:41;;;;;;;9.93;2.15;;;19.00;99.90;;;;;;5018488;28;20195;-76
2023/07/04 10:37:11;;;;;;;8.98;1.88;;;19.30;99.90;;;;;;5018405;28;20057;-76
2023/07/04 10:39:38;;;;;;;8.95;2.00;;;19.50;99.90;;;;;;5018568;28;20079;-76
2023/07/04 10:42:04;;;;;;;9.07;2.15;;;19.70;99.90;;;;;;5018338;28;20018;-75
2023/07/04 10:44:33;;;;;;;8.55;2.40;;;19.60;99.90;;;;;;5018670;28;20217;-75
2023/07/04 10:47:14;;;;;;;7.20;1.83;;;19.90;99.90;;;;;;5018640;28;20025;-75
2023/07/04 10:49:53;;;;;;;8.90;2.20;;;20.10;99.90;;;;;;5018451;28;20033;-75
2023/07/04 10:52:27;;;;;;;10.18;2.03;;;20.30;99.90;;;;;;5018279;28;20256;-76
2023/07/04 10:54:53;;;;;;;8.40;1.95;;;20.40;99.90;;;;;;5002057;28;20022;-76
2023/07/04 10:57:26;;;;;;;9.20;2.30;;;20.60;99.90;;;;;;5001953;28;20152;-76
2023/07/04 10:59:54;;;;;;;;;;;20.30;99.90;;;;;;5018622;28;20034;-76
2023/07/04 11:02:37;;;;;;;6.75;1.98;;;20.10;99.90;;;;;;5005180;28;19931;-76
2023/07/04 11:05:15;;;;;;;10.30;2.40;;;20.10;99.90;;;;;;5005408;28;20049;-75
2023/07/04 11:07:43;;;;;;;9.50;2.25;;;20.10;99.90;;;;;;5021452;28;20037;-75
2023/07/04 11:10:12;;;;;;;7.97;1.92;;;19.90;99.90;;;;;;5021565;28;20025;-75
2023/07/04 11:12:41;;;;;;;9.18;2.20;;;20.00;99.90;;;;;;5021369;28;20232;-76
2023/07/04 11:15:20;;;;;;;9.52;2.47;;;20.00;99.90;;;;;;5005636;28;20033;-75
2023/07/04 11:17:47;;;;;;;12.55;2.38;;;20.00;99.90;;;;;;5004726;28;20022;-75
2023/07/04 11:20:22;;;;;;;7.93;2.30;;;20.00;99.90;;;;;;5005121;28;20045;-76
2023/07/04 11:22:51;;;;;;;10.02;2.63;;;20.10;99.90;;;;;;5021173;28;20025;-75
2023/07/04 11:25:36;;;;;;;9.45;2.20;;;20.30;99.90;;;;;;5021466;28;20097;-76
2023/07/04 11:28:27;;;;;;;10.10;2.30;;;20.50;99.90;;;;;;5004655;28;20036;-76
2023/07/04 11:31:07;;;;;;;7.60;2.28;;;20.70;99.90;;;;;;5004951;28;20018;-75
2023/07/04 11:34:08;;;;;;;7.75;2.20;;;20.60;99.90;;;;;;5021054;28;20038;-75
2023/07/04 11:37:04;;;;;;;9.98;2.30;;;20.20;99.90;;;;;;5008242;28;20260;-76
2023/07/04 11:39:32;;;;;;;13.35;2.20;;;20.00;99.90;;;;;;5021137;28;20094;-75
2023/07/04 11:42:19;;;;;;;9.70;2.20;;;20.10;99.90;;;;;;5004727;28;20110;-75
2023/07/04 11:45:05;;;;;;;8.93;2.17;;;20.20;99.90;;;;;;5021039;28;20044;-75
2023/07/04 11:47:44;;;;;;;9.38;2.22;;;20.00;99.90;;;;;;5020943;28;20099;-75
2023/07/04 11:50:20;;;;;;;9.90;2.58;;;20.10;99.90;;;;;;5020875;28;20030;-75
2023/07/04 11:52:57;;;;;;;8.85;2.28;;;20.30;99.90;;;;;;5004523;28;20170;-75
2023/07/04 11:55:30;;;;;;;10.90;2.30;;;20.40;99.90;;;;;;5004523;28;20014;-75
2023/07/04 11:57:59;;;;;;;;;;;20.60;99.90;;;;;;5020996;28;20029;-75
2023/07/04 12:00:44;;;;;;;8.43;2.15;;;20.70;99.90;;;;;;5020682;28;20003;-75
2023/07/04 12:03:16;;;;;;;8.57;1.80;;;21.20;99.90;;;;;;5010348;28;20258;-75
2023/07/04 12:05:50;;;;;;;8.57;2.07;;;21.10;99.90;;;;;;5020831;28;20134;-75
2023/07/04 12:08:34;;;;;;;9.68;1.88;;;21.20;99.90;;;;;;5005331;28;20288;-75
2023/07/04 12:11:06;;;;;;;10.10;2.20;;;21.30;99.90;;;;;;5020696;28;20179;-75
2023/07/04 12:13:39;;;;;;;12.15;2.67;;;21.30;99.90;;;;;;5020608;28;20305;-75
2023/07/04 12:16:06;;;;;;;10.93;2.38;;;21.20;99.90;;;;;;5004047;28;20041;-75
2023/07/04 12:18:34;;;;;;;8.52;2.08;;;21.40;99.90;;;;;;4987789;28;20033;-75
2023/07/04 12:21:00;;;;;;;9.18;2.13;;;21.50;99.90;;;;;;5004017;28;20022;-75
2023/07/04 12:23:26;;;;;;;9.20;2.10;;;21.40;99.90;;;;;;5020143;28;20044;-75
2023/07/04 12:25:55;;;;;;;7.88;2.05;;;21.10;99.90;;;;;;5020445;28;20038;-75
2023/07/04 12:28:27;;;;;;;8.70;2.25;;;21.10;99.90;;;;;;5003653;28;20034;-75
2023/07/04 12:30:57;;;;;;;9.93;2.38;;;21.20;99.90;;;;;;5020296;28;20026;-75
2023/07/04 12:33:30;;;;;;;11.20;2.30;;;21.20;99.90;;;;;;5020003;28;20050;-75
2023/07/04 12:36:06;;;;;;;7.90;1.90;;;21.10;99.90;;;;;;5003769;28;20022;-75
2023/07/04 12:38:33;;;;;;;12.25;2.00;;;21.10;99.90;;;;;;5003719;28;20041;-74
2023/07/04 12:41:00;;;;;;;7.22;1.83;;;21.10;99.90;;;;;;5019925;28;20053;-75
2023/07/04 12:43:30;;;;;;;11.38;2.53;;;20.90;99.90;;;;;;5003342;28;20091;-75
2023/07/04 12:46:10;;;;;;;9.95;2.20;;;20.80;99.90;;;;;;5019818;28;20075;-75
2023/07/04 12:48:37;;;;;;;9.30;2.20;;;20.60;99.90;;;;;;5019612;28;20030;-75
2023/07/04 12:51:10;;;;;;;9.30;1.98;;;20.60;99.90;;;;;;5003653;28;20022;-75
2023/07/04 12:53:37;;;;;;;8.15;2.00;;;20.60;99.90;;;;;;5019842;28;20045;-75